createdAt,value
2023-03-11T07:10:13.970Z,20.827637
2023-03-11T07:11:13.955Z,20.807495
2023-03-11T07:12:15.664Z,20.74707
2023-03-11T07:13:13.711Z,20.686646
2023-03-11T07:14:13.907Z,20.636292
2023-03-11T07:15:13.718Z,20.596008
2023-03-11T07:16:13.859Z,20.555725
2023-03-11T07:17:13.773Z,20.505371
2023-03-11T07:18:13.802Z,20.475159
2023-03-11T07:19:13.831Z,20.424805
2023-03-11T07:20:13.842Z,20.404663
2023-03-11T07:21:13.809Z,20.374451
2023-03-11T07:22:13.714Z,20.354309
2023-03-11T07:23:14.127Z,20.334167
2023-03-11T07:24:14.724Z,20.344238
2023-03-11T07:25:13.693Z,20.374451
2023-03-11T07:26:13.766Z,20.374451
2023-03-11T07:27:14.766Z,20.374451
2023-03-11T07:28:13.707Z,20.414734
2023-03-11T07:29:14.702Z,20.424805
2023-03-11T07:30:14.151Z,20.475159
2023-03-11T07:31:13.686Z,20.525513
2023-03-11T07:32:13.610Z,20.555725
2023-03-11T07:33:13.620Z,20.686646
2023-03-11T07:34:13.610Z,20.726929
2023-03-11T07:35:13.661Z,20.787354
2023-03-11T07:36:13.559Z,20.827637
2023-03-11T07:37:13.561Z,20.898132
2023-03-11T07:38:17.405Z,20.938416
2023-03-11T07:39:14.460Z,20.978699
2023-03-11T07:40:14.629Z,21.029053
2023-03-11T07:41:13.488Z,21.059265
2023-03-11T07:42:14.494Z,21.11969
2023-03-11T07:43:14.510Z,21.159973
2023-03-11T07:44:15.327Z,21.220398
2023-03-11T07:45:13.533Z,21.270752
2023-03-11T07:46:13.429Z,21.311035
2023-03-11T07:47:13.475Z,21.361389
2023-03-11T07:48:14.483Z,21.421814
2023-03-11T07:49:13.518Z,21.482239
